Terminal Aerodrome Forecast
Issued by NWS

Home | Current Version | Previous Version | Text Only | Print | Product List | Glossary On
Versions: 1 2 3 4 5 6 7 8 9 10 11 12 13 14 15 16
631
FTUS43 KABR 212336
TAFPIR
TAF
KPIR 212336Z 2200/2224 13005KT P6SM SKC
     FM220200 24008KT P6SM SCT200
     FM221600 29011KT P6SM SCT200
     FM221800 30015G23KT P6SM SCT250
     FM222300 34012KT P6SM BKN080=

USA.gov is the U.S. government's official web portal to all federal, state and local government web resources and services.